sensor_id;sensor_type;location;lat;lon;timestamp;pressure;altitude;pressure_sealevel;temperature;humidity
70976;BME280;58635;51.198;6.010;2023-05-23T00:00:06;101625.75;;;21.26;53.64
70976;BME280;58635;51.198;6.010;2023-05-23T00:02:32;101621.22;;;21.21;53.87
70976;BME280;58635;51.198;6.010;2023-05-23T00:04:57;101624.78;;;21.15;54.00
70976;BME280;58635;51.198;6.010;2023-05-23T00:07:23;101624.50;;;21.12;54.00
70976;BME280;58635;51.198;6.010;2023-05-23T00:09:50;101621.56;;;21.08;54.13
70976;BME280;58635;51.198;6.010;2023-05-23T00:12:15;101620.44;;;21.04;54.21
70976;BME280;58635;51.198;6.010;2023-05-23T00:14:41;101624.34;;;21.01;54.24
70976;BME280;58635;51.198;6.010;2023-05-23T00:17:06;101622.22;;;20.98;54.18
70976;BME280;58635;51.198;6.010;2023-05-23T00:19:34;101630.00;;;20.93;54.52
70976;BME280;58635;51.198;6.010;2023-05-23T00:22:00;101636.81;;;20.89;54.40
70976;BME280;58635;51.198;6.010;2023-05-23T00:24:27;101633.31;;;20.84;54.24
70976;BME280;58635;51.198;6.010;2023-05-23T00:26:53;101634.81;;;20.80;54.47
70976;BME280;58635;51.198;6.010;2023-05-23T00:29:18;101638.97;;;20.76;54.71
70976;BME280;58635;51.198;6.010;2023-05-23T00:31:44;101648.13;;;20.73;54.58
70976;BME280;58635;51.198;6.010;2023-05-23T00:34:14;101648.59;;;20.70;54.60
70976;BME280;58635;51.198;6.010;2023-05-23T00:36:42;101649.06;;;20.67;54.50
70976;BME280;58635;51.198;6.010;2023-05-23T00:39:07;101651.16;;;20.65;54.56
70976;BME280;58635;51.198;6.010;2023-05-23T00:41:33;101663.41;;;20.59;54.64
70976;BME280;58635;51.198;6.010;2023-05-23T00:44:00;101661.50;;;20.55;54.49
70976;BME280;58635;51.198;6.010;2023-05-23T00:46:27;101659.59;;;20.50;54.26
70976;BME280;58635;51.198;6.010;2023-05-23T00:48:53;101664.28;;;20.48;54.22
70976;BME280;58635;51.198;6.010;2023-05-23T00:51:19;101670.81;;;20.46;54.09
70976;BME280;58635;51.198;6.010;2023-05-23T00:53:45;101668.19;;;20.46;54.31
70976;BME280;58635;51.198;6.010;2023-05-23T00:56:11;101664.75;;;20.45;54.33
70976;BME280;58635;51.198;6.010;2023-05-23T00:58:37;101664.50;;;20.47;54.02
70976;BME280;58635;51.198;6.010;2023-05-23T01:01:03;101665.78;;;20.44;54.07
70976;BME280;58635;51.198;6.010;2023-05-23T01:03:29;101668.66;;;20.42;54.02
70976;BME280;58635;51.198;6.010;2023-05-23T01:05:55;101667.03;;;20.41;53.99
70976;BME280;58635;51.198;6.010;2023-05-23T01:08:21;101671.75;;;20.39;53.93
70976;BME280;58635;51.198;6.010;2023-05-23T01:10:47;101670.16;;;20.38;53.86
70976;BME280;58635;51.198;6.010;2023-05-23T01:16:16;101679.06;;;20.37;54.11
70976;BME280;58635;51.198;6.010;2023-05-23T01:18:48;101683.53;;;20.37;54.35
70976;BME280;58635;51.198;6.010;2023-05-23T01:21:20;101679.06;;;20.37;54.59
70976;BME280;58635;51.198;6.010;2023-05-23T01:24:40;101679.28;;;20.36;54.86
70976;BME280;58635;51.198;6.010;2023-05-23T01:27:23;101676.66;;;20.36;54.95
70976;BME280;58635;51.198;6.010;2023-05-23T01:29:57;101675.06;;;20.35;55.08
70976;BME280;58635;51.198;6.010;2023-05-23T01:32:26;101684.75;;;20.34;55.31
70976;BME280;58635;51.198;6.010;2023-05-23T01:34:53;101679.75;;;20.33;55.46
70976;BME280;58635;51.198;6.010;2023-05-23T01:37:19;101680.56;;;20.33;55.21
70976;BME280;58635;51.198;6.010;2023-05-23T01:39:45;101687.09;;;20.31;55.27
70976;BME280;58635;51.198;6.010;2023-05-23T01:42:10;101683.91;;;20.29;55.15
70976;BME280;58635;51.198;6.010;2023-05-23T01:44:37;101676.25;;;20.27;55.13
70976;BME280;58635;51.198;6.010;2023-05-23T01:47:04;101681.50;;;20.27;55.15
70976;BME280;58635;51.198;6.010;2023-05-23T01:49:32;101689.63;;;20.26;54.80
70976;BME280;58635;51.198;6.010;2023-05-23T01:51:59;101685.41;;;20.25;54.73
70976;BME280;58635;51.198;6.010;2023-05-23T01:54:26;101695.31;;;20.23;54.71
70976;BME280;58635;51.198;6.010;2023-05-23T01:56:55;101681.63;;;20.21;54.51
70976;BME280;58635;51.198;6.010;2023-05-23T01:59:20;101690.00;;;20.18;54.60
70976;BME280;58635;51.198;6.010;2023-05-23T02:01:46;101698.13;;;20.16;54.50
70976;BME280;58635;51.198;6.010;2023-05-23T02:04:12;101693.09;;;20.14;54.55
70976;BME280;58635;51.198;6.010;2023-05-23T02:06:37;101694.13;;;20.13;54.32
70976;BME280;58635;51.198;6.010;2023-05-23T02:09:03;101695.97;;;20.13;54.17
70976;BME280;58635;51.198;6.010;2023-05-23T02:11:28;101692.50;;;20.12;54.04
70976;BME280;58635;51.198;6.010;2023-05-23T02:13:53;101689.88;;;20.12;54.06
70976;BME280;58635;51.198;6.010;2023-05-23T02:16:19;101687.25;;;20.12;53.96
70976;BME280;58635;51.198;6.010;2023-05-23T02:18:45;101696.41;;;20.10;53.96
70976;BME280;58635;51.198;6.010;2023-05-23T02:21:11;101697.69;;;20.07;53.81
70976;BME280;58635;51.198;6.010;2023-05-23T02:23:36;101700.53;;;20.06;53.86
70976;BME280;58635;51.198;6.010;2023-05-23T02:26:02;101701.59;;;20.05;54.07
70976;BME280;58635;51.198;6.010;2023-05-23T02:28:27;101692.91;;;20.04;53.80
70976;BME280;58635;51.198;6.010;2023-05-23T02:30:52;101699.75;;;20.05;53.83
70976;BME280;58635;51.198;6.010;2023-05-23T02:33:18;101705.00;;;20.05;53.86
70976;BME280;58635;51.198;6.010;2023-05-23T02:35:43;101703.16;;;20.06;53.81
70976;BME280;58635;51.198;6.010;2023-05-23T02:38:09;101704.44;;;20.03;53.43
70976;BME280;58635;51.198;6.010;2023-05-23T02:40:34;101713.56;;;20.01;53.53
70976;BME280;58635;51.198;6.010;2023-05-23T02:43:00;101714.03;;;19.98;53.67
70976;BME280;58635;51.198;6.010;2023-05-23T02:45:25;101717.69;;;19.97;53.57
70976;BME280;58635;51.198;6.010;2023-05-23T02:47:51;101714.50;;;19.95;53.69
70976;BME280;58635;51.198;6.010;2023-05-23T02:50:16;101717.59;;;19.92;53.75
70976;BME280;58635;51.198;6.010;2023-05-23T02:52:42;101719.88;;;19.88;53.94
70976;BME280;58635;51.198;6.010;2023-05-23T02:55:08;101721.16;;;19.85;54.08
70976;BME280;58635;51.198;6.010;2023-05-23T02:57:33;101720.03;;;19.81;54.11
70976;BME280;58635;51.198;6.010;2023-05-23T02:59:59;101721.28;;;19.79;54.20
70976;BME280;58635;51.198;6.010;2023-05-23T03:02:24;101727.34;;;19.79;54.39
70976;BME280;58635;51.198;6.010;2023-05-23T03:04:51;101722.09;;;19.79;54.52
70976;BME280;58635;51.198;6.010;2023-05-23T03:07:16;101732.59;;;19.79;54.41
70976;BME280;58635;51.198;6.010;2023-05-23T03:09:42;101733.81;;;19.77;54.31
70976;BME280;58635;51.198;6.010;2023-05-23T03:12:07;101740.09;;;19.76;54.25
70976;BME280;58635;51.198;6.010;2023-05-23T03:14:32;101733.72;;;19.72;54.34
70976;BME280;58635;51.198;6.010;2023-05-23T03:16:58;101735.56;;;19.71;54.52
70976;BME280;58635;51.198;6.010;2023-05-23T03:19:24;101744.94;;;19.67;54.66
70976;BME280;58635;51.198;6.010;2023-05-23T03:21:50;101735.66;;;19.65;54.36
70976;BME280;58635;51.198;6.010;2023-05-23T03:24:16;101741.94;;;19.64;54.85
70976;BME280;58635;51.198;6.010;2023-05-23T03:26:42;101734.06;;;19.64;54.85
70976;BME280;58635;51.198;6.010;2023-05-23T03:29:07;101739.00;;;19.60;54.67
70976;BME280;58635;51.198;6.010;2023-05-23T03:31:35;101741.38;;;19.62;54.51
70976;BME280;58635;51.198;6.010;2023-05-23T03:34:00;101742.66;;;19.59;54.57
70976;BME280;58635;51.198;6.010;2023-05-23T03:36:26;101749.97;;;19.57;54.82
70976;BME280;58635;51.198;6.010;2023-05-23T03:38:52;101752.81;;;19.55;54.65
70976;BME280;58635;51.198;6.010;2023-05-23T03:41:18;101750.41;;;19.54;54.69
70976;BME280;58635;51.198;6.010;2023-05-23T03:43:43;101759.50;;;19.51;54.87
70976;BME280;58635;51.198;6.010;2023-05-23T03:46:09;101759.72;;;19.50;54.69
70976;BME280;58635;51.198;6.010;2023-05-23T03:48:34;101752.66;;;19.50;54.97
70976;BME280;58635;51.198;6.010;2023-05-23T03:51:00;101758.69;;;19.51;55.03
70976;BME280;58635;51.198;6.010;2023-05-23T03:53:25;101749.78;;;19.52;54.66
70976;BME280;58635;51.198;6.010;2023-05-23T03:55:50;101754.25;;;19.51;54.52
70976;BME280;58635;51.198;6.010;2023-05-23T03:58:18;101761.09;;;19.52;54.87
70976;BME280;58635;51.198;6.010;2023-05-23T04:00:44;101756.63;;;19.53;54.73
70976;BME280;58635;51.198;6.010;2023-05-23T04:03:10;101755.63;;;19.54;54.45
70976;BME280;58635;51.198;6.010;2023-05-23T04:05:38;101760.28;;;19.52;54.73
70976;BME280;58635;51.198;6.010;2023-05-23T04:08:03;101763.16;;;19.50;54.58
70976;BME280;58635;51.198;6.010;2023-05-23T04:10:29;101759.16;;;19.48;54.47
70976;BME280;58635;51.198;6.010;2023-05-23T04:12:54;101768.88;;;19.47;55.13
70976;BME280;58635;51.198;6.010;2023-05-23T04:15:20;101768.53;;;19.44;54.86
70976;BME280;58635;51.198;6.010;2023-05-23T04:17:46;101767.97;;;19.42;54.65
70976;BME280;58635;51.198;6.010;2023-05-23T04:20:11;101769.56;;;19.43;54.92
70976;BME280;58635;51.198;6.010;2023-05-23T04:22:37;101771.94;;;19.44;54.71
70976;BME280;58635;51.198;6.010;2023-05-23T04:25:03;101769.31;;;19.44;54.83
70976;BME280;58635;51.198;6.010;2023-05-23T04:27:29;101768.06;;;19.47;54.52
70976;BME280;58635;51.198;6.010;2023-05-23T04:29:55;101775.94;;;19.47;54.59
70976;BME280;58635;51.198;6.010;2023-05-23T04:32:22;101776.72;;;19.47;54.97
70976;BME280;58635;51.198;6.010;2023-05-23T04:34:48;101775.13;;;19.46;54.88
70976;BME280;58635;51.198;6.010;2023-05-23T04:37:14;101771.94;;;19.44;54.57
70976;BME280;58635;51.198;6.010;2023-05-23T04:39:39;101777.19;;;19.44;54.84
70976;BME280;58635;51.198;6.010;2023-05-23T04:42:05;101771.16;;;19.44;54.72
70976;BME280;58635;51.198;6.010;2023-05-23T04:44:31;101768.75;;;19.42;54.69
70976;BME280;58635;51.198;6.010;2023-05-23T04:46:57;101784.69;;;19.41;54.80
70976;BME280;58635;51.198;6.010;2023-05-23T04:49:23;101789.03;;;19.35;54.95
70976;BME280;58635;51.198;6.010;2023-05-23T04:51:49;101785.84;;;19.33;55.17
70976;BME280;58635;51.198;6.010;2023-05-23T04:54:15;101794.97;;;19.31;55.45
70976;BME280;58635;51.198;6.010;2023-05-23T04:56:40;101794.75;;;19.32;55.16
70976;BME280;58635;51.198;6.010;2023-05-23T04:59:06;101798.75;;;19.35;55.46
70976;BME280;58635;51.198;6.010;2023-05-23T05:01:33;101802.16;;;19.35;55.47
70976;BME280;58635;51.198;6.010;2023-05-23T05:03:58;101801.13;;;19.36;55.27
70976;BME280;58635;51.198;6.010;2023-05-23T05:06:23;101804.78;;;19.35;55.43
70976;BME280;58635;51.198;6.010;2023-05-23T05:08:49;101812.88;;;19.34;55.68
70976;BME280;58635;51.198;6.010;2023-05-23T05:11:15;101812.66;;;19.35;55.40
70976;BME280;58635;51.198;6.010;2023-05-23T05:13:40;101805.59;;;19.36;55.88
70976;BME280;58635;51.198;6.010;2023-05-23T05:16:06;101810.03;;;19.35;55.47
70976;BME280;58635;51.198;6.010;2023-05-23T05:18:31;101808.78;;;19.38;55.42
70976;BME280;58635;51.198;6.010;2023-05-23T05:20:57;101804.78;;;19.35;55.67
70976;BME280;58635;51.198;6.010;2023-05-23T05:23:25;101814.47;;;19.35;55.56
70976;BME280;58635;51.198;6.010;2023-05-23T05:25:53;101813.69;;;19.34;55.78
70976;BME280;58635;51.198;6.010;2023-05-23T05:28:18;101815.28;;;19.35;55.92
70976;BME280;58635;51.198;6.010;2023-05-23T05:30:45;101813.47;;;19.36;55.58
70976;BME280;58635;51.198;6.010;2023-05-23T05:33:12;101812.66;;;19.35;55.44
70976;BME280;58635;51.198;6.010;2023-05-23T05:35:38;101818.69;;;19.36;55.82
70976;BME280;58635;51.198;6.010;2023-05-23T05:38:03;101819.50;;;19.36;55.69
70976;BME280;58635;51.198;6.010;2023-05-23T05:40:30;101817.09;;;19.35;55.66
70976;BME280;58635;51.198;6.010;2023-05-23T05:42:56;101824.28;;;19.39;55.74
70976;BME280;58635;51.198;6.010;2023-05-23T05:45:21;101830.34;;;19.40;55.51
70976;BME280;58635;51.198;6.010;2023-05-23T05:47:46;101826.09;;;19.39;55.41
70976;BME280;58635;51.198;6.010;2023-05-23T05:50:12;101829.53;;;19.39;55.32
70976;BME280;58635;51.198;6.010;2023-05-23T05:52:37;101826.09;;;19.39;55.49
70976;BME280;58635;51.198;6.010;2023-05-23T05:55:05;101831.94;;;19.41;55.66
70976;BME280;58635;51.198;6.010;2023-05-23T05:57:31;101830.09;;;19.41;55.76
70976;BME280;58635;51.198;6.010;2023-05-23T05:59:57;101829.91;;;19.43;55.47
70976;BME280;58635;51.198;6.010;2023-05-23T06:02:22;101834.91;;;19.44;55.76
70976;BME280;58635;51.198;6.010;2023-05-23T06:04:48;101838.34;;;19.45;55.91
70976;BME280;58635;51.198;6.010;2023-05-23T06:07:13;101835.94;;;19.43;56.04
70976;BME280;58635;51.198;6.010;2023-05-23T06:09:39;101841.19;;;19.43;55.71
70976;BME280;58635;51.198;6.010;2023-05-23T06:12:04;101836.19;;;19.42;55.90
70976;BME280;58635;51.198;6.010;2023-05-23T06:14:30;101852.91;;;19.41;56.25
70976;BME280;58635;51.198;6.010;2023-05-23T06:16:55;101846.88;;;19.40;56.02
70976;BME280;58635;51.198;6.010;2023-05-23T06:19:20;101845.84;;;19.41;56.20
70976;BME280;58635;51.198;6.010;2023-05-23T06:21:46;101851.91;;;19.42;56.30
70976;BME280;58635;51.198;6.010;2023-05-23T06:24:11;101854.88;;;19.45;56.37
70976;BME280;58635;51.198;6.010;2023-05-23T06:26:37;101853.72;;;19.53;56.05
70976;BME280;58635;51.198;6.010;2023-05-23T06:29:03;101854.81;;;19.64;56.22
70976;BME280;58635;51.198;6.010;2023-05-23T06:31:28;101847.63;;;19.71;55.76
70976;BME280;58635;51.198;6.010;2023-05-23T06:33:53;101848.88;;;19.80;55.63
70976;BME280;58635;51.198;6.010;2023-05-23T06:36:19;101844.31;;;19.87;55.57
70976;BME280;58635;51.198;6.010;2023-05-23T06:38:46;101860.75;;;19.94;55.35
70976;BME280;58635;51.198;6.010;2023-05-23T06:41:11;101868.72;;;19.99;55.14
70976;BME280;58635;51.198;6.010;2023-05-23T06:43:37;101862.81;;;20.04;54.91
70976;BME280;58635;51.198;6.010;2023-05-23T06:46:02;101865.75;;;20.07;54.50
70976;BME280;58635;51.198;6.010;2023-05-23T06:48:27;101867.94;;;20.10;54.21
70976;BME280;58635;51.198;6.010;2023-05-23T06:50:53;101871.34;;;20.11;54.04
70976;BME280;58635;51.198;6.010;2023-05-23T06:53:18;101871.13;;;20.12;53.77
70976;BME280;58635;51.198;6.010;2023-05-23T06:55:43;101878.56;;;20.15;53.75
70976;BME280;58635;51.198;6.010;2023-05-23T06:58:09;101879.34;;;20.16;53.74
70976;BME280;58635;51.198;6.010;2023-05-23T07:00:34;101890.44;;;20.18;53.57
70976;BME280;58635;51.198;6.010;2023-05-23T07:03:00;101889.63;;;20.18;53.42
70976;BME280;58635;51.198;6.010;2023-05-23T07:05:27;101889.06;;;20.15;53.27
70976;BME280;58635;51.198;6.010;2023-05-23T07:07:53;101892.97;;;20.13;53.36
70976;BME280;58635;51.198;6.010;2023-05-23T07:10:19;101899.44;;;20.10;53.40
70976;BME280;58635;51.198;6.010;2023-05-23T07:12:45;101900.94;;;20.06;53.34
70976;BME280;58635;51.198;6.010;2023-05-23T07:15:11;101902.75;;;20.06;53.65
70976;BME280;58635;51.198;6.010;2023-05-23T07:17:36;101905.16;;;20.07;53.63
70976;BME280;58635;51.198;6.010;2023-05-23T07:20:02;101906.53;;;20.10;53.50
70976;BME280;58635;51.198;6.010;2023-05-23T07:22:29;101912.81;;;20.09;53.13
70976;BME280;58635;51.198;6.010;2023-05-23T07:24:54;101910.41;;;20.07;52.97
70976;BME280;58635;51.198;6.010;2023-05-23T07:27:20;101919.31;;;20.06;53.27
70976;BME280;58635;51.198;6.010;2023-05-23T07:29:46;101922.03;;;20.00;53.27
70976;BME280;58635;51.198;6.010;2023-05-23T07:32:11;101924.25;;;19.91;53.53
70976;BME280;58635;51.198;6.010;2023-05-23T07:34:36;101925.13;;;19.85;53.41
70976;BME280;58635;51.198;6.010;2023-05-23T07:37:02;101925.69;;;19.75;53.46
70976;BME280;58635;51.198;6.010;2023-05-23T07:39:27;101926.59;;;19.69;53.78
70976;BME280;58635;51.198;6.010;2023-05-23T07:41:53;101927.06;;;19.66;53.64
70976;BME280;58635;51.198;6.010;2023-05-23T07:44:18;101935.13;;;19.65;53.76
70976;BME280;58635;51.198;6.010;2023-05-23T07:46:44;101935.59;;;19.62;53.78
70976;BME280;58635;51.198;6.010;2023-05-23T07:49:09;101928.22;;;19.52;53.56
70976;BME280;58635;51.198;6.010;2023-05-23T07:51:35;101928.13;;;19.47;54.09
70976;BME280;58635;51.198;6.010;2023-05-23T07:54:01;101933.94;;;19.49;54.03
70976;BME280;58635;51.198;6.010;2023-05-23T07:56:26;101938.34;;;19.55;53.84
70976;BME280;58635;51.198;6.010;2023-05-23T07:58:52;101944.72;;;19.59;53.81
70976;BME280;58635;51.198;6.010;2023-05-23T08:01:17;101941.19;;;19.65;53.55
70976;BME280;58635;51.198;6.010;2023-05-23T08:03:43;101947.94;;;19.73;53.39
70976;BME280;58635;51.198;6.010;2023-05-23T08:06:08;101948.88;;;19.78;52.84
70976;BME280;58635;51.198;6.010;2023-05-23T08:08:34;101946.69;;;19.87;52.79
70976;BME280;58635;51.198;6.010;2023-05-23T08:11:00;101943.53;;;19.97;52.82
70976;BME280;58635;51.198;6.010;2023-05-23T08:13:26;101949.56;;;20.09;52.23
70976;BME280;58635;51.198;6.010;2023-05-23T08:15:51;101951.63;;;20.19;51.83
70976;BME280;58635;51.198;6.010;2023-05-23T08:18:16;101946.16;;;20.20;51.65
70976;BME280;58635;51.198;6.010;2023-05-23T08:20:42;101960.66;;;20.23;51.50
70976;BME280;58635;51.198;6.010;2023-05-23T08:23:08;101953.38;;;20.25;51.16
70976;BME280;58635;51.198;6.010;2023-05-23T08:25:33;101961.25;;;20.25;50.80
70976;BME280;58635;51.198;6.010;2023-05-23T08:27:59;101967.75;;;20.22;50.63
70976;BME280;58635;51.198;6.010;2023-05-23T08:30:26;101972.09;;;20.17;50.41
70976;BME280;58635;51.198;6.010;2023-05-23T08:32:53;101977.44;;;20.10;50.19
70976;BME280;58635;51.198;6.010;2023-05-23T08:35:19;101979.25;;;20.09;49.92
70976;BME280;58635;51.198;6.010;2023-05-23T08:37:45;101975.84;;;20.09;49.51
70976;BME280;58635;51.198;6.010;2023-05-23T08:40:20;101981.91;;;20.09;49.61
70976;BME280;58635;51.198;6.010;2023-05-23T08:42:47;101982.69;;;20.10;49.31
70976;BME280;58635;51.198;6.010;2023-05-23T08:45:13;101980.88;;;20.10;49.09
70976;BME280;58635;51.198;6.010;2023-05-23T08:47:43;101989.78;;;20.09;48.74
70976;BME280;58635;51.198;6.010;2023-05-23T08:50:14;101984.75;;;20.08;48.71
70976;BME280;58635;51.198;6.010;2023-05-23T08:52:58;101995.25;;;20.08;48.21
70976;BME280;58635;51.198;6.010;2023-05-23T08:55:25;101989.19;;;20.07;47.97
70976;BME280;58635;51.198;6.010;2023-05-23T08:57:52;101993.19;;;20.10;47.98
70976;BME280;58635;51.198;6.010;2023-05-23T09:00:18;101994.47;;;20.19;47.46
70976;BME280;58635;51.198;6.010;2023-05-23T09:02:44;101990.94;;;20.25;47.34
70976;BME280;58635;51.198;6.010;2023-05-23T09:05:10;101996.06;;;20.32;47.17
70976;BME280;58635;51.198;6.010;2023-05-23T09:07:36;101998.13;;;20.41;47.10
70976;BME280;58635;51.198;6.010;2023-05-23T09:10:03;101996.09;;;20.55;46.79
70976;BME280;58635;51.198;6.010;2023-05-23T09:12:29;101998.72;;;20.67;45.98
70976;BME280;58635;51.198;6.010;2023-05-23T09:14:55;101996.06;;;20.79;45.74
70976;BME280;58635;51.198;6.010;2023-05-23T09:17:20;101998.91;;;20.89;45.31
70976;BME280;58635;51.198;6.010;2023-05-23T09:19:46;101994.88;;;20.98;44.70
70976;BME280;58635;51.198;6.010;2023-05-23T09:22:12;101996.69;;;21.09;44.39
70976;BME280;58635;51.198;6.010;2023-05-23T09:24:38;102000.19;;;21.26;43.79
70976;BME280;58635;51.198;6.010;2023-05-23T09:27:07;101992.34;;;21.43;43.52
70976;BME280;58635;51.198;6.010;2023-05-23T09:29:38;101984.47;;;21.60;43.25
70976;BME280;58635;51.198;6.010;2023-05-23T09:32:17;101989.28;;;21.97;43.11
70976;BME280;58635;51.198;6.010;2023-05-23T09:34:56;101989.78;;;22.27;42.28
70976;BME280;58635;51.198;6.010;2023-05-23T09:37:27;101992.22;;;22.34;41.76
70976;BME280;58635;51.198;6.010;2023-05-23T09:39:53;101988.41;;;22.25;41.84
70976;BME280;58635;51.198;6.010;2023-05-23T09:42:22;101992.03;;;22.18;41.68
70976;BME280;58635;51.198;6.010;2023-05-23T09:44:49;101989.63;;;22.17;41.72
70976;BME280;58635;51.198;6.010;2023-05-23T09:47:15;102001.28;;;22.21;42.01
70976;BME280;58635;51.198;6.010;2023-05-23T09:49:45;101992.09;;;22.24;42.03
70976;BME280;58635;51.198;6.010;2023-05-23T09:52:10;101989.78;;;22.27;41.78
70976;BME280;58635;51.198;6.010;2023-05-23T09:54:36;101987.44;;;22.31;41.56
70976;BME280;58635;51.198;6.010;2023-05-23T09:57:02;101994.97;;;22.39;41.09
70976;BME280;58635;51.198;6.010;2023-05-23T09:59:31;101994.38;;;22.37;41.35
70976;BME280;58635;51.198;6.010;2023-05-23T10:02:01;101998.06;;;22.36;41.35
70976;BME280;58635;51.198;6.010;2023-05-23T10:04:30;102007.34;;;22.38;41.28
70976;BME280;58635;51.198;6.010;2023-05-23T10:06:58;102012.38;;;22.40;41.49
70976;BME280;58635;51.198;6.010;2023-05-23T10:09:27;102001.03;;;22.39;41.20
70976;BME280;58635;51.198;6.010;2023-05-23T10:14:48;102002.13;;;22.43;40.97
70976;BME280;58635;51.198;6.010;2023-05-23T10:17:47;102002.97;;;22.27;40.96
70976;BME280;58635;51.198;6.010;2023-05-23T10:20:10;101997.19;;;22.13;41.32
70976;BME280;58635;51.198;6.010;2023-05-23T10:22:39;102009.19;;;22.21;41.35
70976;BME280;58635;51.198;6.010;2023-05-23T10:25:05;102003.50;;;22.29;41.29
70976;BME280;58635;51.198;6.010;2023-05-23T10:27:32;102014.13;;;22.34;41.20
70976;BME280;58635;51.198;6.010;2023-05-23T10:29:58;102016.19;;;22.32;40.89
70976;BME280;58635;51.198;6.010;2023-05-23T10:32:24;102009.34;;;22.31;41.05
70976;BME280;58635;51.198;6.010;2023-05-23T10:35:20;102010.06;;;22.27;40.88
70976;BME280;58635;51.198;6.010;2023-05-23T10:38:28;102011.91;;;22.26;41.31
70976;BME280;58635;51.198;6.010;2023-05-23T10:41:33;102011.06;;;22.42;41.13
70976;BME280;58635;51.198;6.010;2023-05-23T10:44:30;102017.28;;;22.53;41.14
70976;BME280;58635;51.198;6.010;2023-05-23T10:46:58;102019.75;;;22.60;40.78
70976;BME280;58635;51.198;6.010;2023-05-23T10:49:42;102015.09;;;22.67;40.28
70976;BME280;58635;51.198;6.010;2023-05-23T10:52:12;102022.09;;;22.78;40.23
70976;BME280;58635;51.198;6.010;2023-05-23T10:54:47;102016.75;;;22.90;39.93
70976;BME280;58635;51.198;6.010;2023-05-23T10:57:18;102015.53;;;22.97;39.75
70976;BME280;58635;51.198;6.010;2023-05-23T10:59:44;102020.84;;;23.02;39.55
70976;BME280;58635;51.198;6.010;2023-05-23T11:02:15;102024.56;;;23.07;39.23
70976;BME280;58635;51.198;6.010;2023-05-23T11:04:42;102018.63;;;23.16;38.68
70976;BME280;58635;51.198;6.010;2023-05-23T11:07:27;102017.41;;;23.24;38.22
70976;BME280;58635;51.198;6.010;2023-05-23T11:10:10;102020.28;;;23.22;37.99
70976;BME280;58635;51.198;6.010;2023-05-23T11:12:40;102022.47;;;23.30;38.45
70976;BME280;58635;51.198;6.010;2023-05-23T11:15:26;102027.00;;;23.35;37.86
70976;BME280;58635;51.198;6.010;2023-05-23T11:17:53;102021.75;;;23.35;37.81
70976;BME280;58635;51.198;6.010;2023-05-23T11:20:25;102023.69;;;23.45;37.29
70976;BME280;58635;51.198;6.010;2023-05-23T11:22:58;102028.59;;;23.36;38.18
70976;BME280;58635;51.198;6.010;2023-05-23T11:25:43;102030.19;;;23.37;38.08
70976;BME280;58635;51.198;6.010;2023-05-23T11:28:10;102023.59;;;23.34;37.70
70976;BME280;58635;51.198;6.010;2023-05-23T11:30:36;102027.19;;;23.28;37.25
70976;BME280;58635;51.198;6.010;2023-05-23T11:35:33;102030.22;;;23.15;37.65
70976;BME280;58635;51.198;6.010;2023-05-23T11:37:59;102036.31;;;23.16;37.73
70976;BME280;58635;51.198;6.010;2023-05-23T11:40:29;102031.09;;;23.21;37.62
70976;BME280;58635;51.198;6.010;2023-05-23T11:42:56;102037.72;;;23.23;37.50
70976;BME280;58635;51.198;6.010;2023-05-23T11:45:22;102038.50;;;23.24;36.93
70976;BME280;58635;51.198;6.010;2023-05-23T11:47:47;102039.47;;;23.18;37.19
70976;BME280;58635;51.198;6.010;2023-05-23T11:50:14;102038.16;;;23.15;36.76
70976;BME280;58635;51.198;6.010;2023-05-23T11:52:40;102042.38;;;23.16;37.20
70976;BME280;58635;51.198;6.010;2023-05-23T11:55:06;102044.84;;;23.23;36.63
70976;BME280;58635;51.198;6.010;2023-05-23T11:57:32;102047.59;;;23.33;37.17
70976;BME280;58635;51.198;6.010;2023-05-23T11:59:58;102055.66;;;23.48;36.36
70976;BME280;58635;51.198;6.010;2023-05-23T12:02:26;102053.44;;;23.62;35.97
70976;BME280;58635;51.198;6.010;2023-05-23T12:04:52;102049.66;;;23.80;35.51
70976;BME280;58635;51.198;6.010;2023-05-23T12:07:20;102055.81;;;23.90;35.73
70976;BME280;58635;51.198;6.010;2023-05-23T12:09:46;102054.03;;;23.96;35.20
70976;BME280;58635;51.198;6.010;2023-05-23T12:12:12;102060.75;;;24.14;35.38
70976;BME280;58635;51.198;6.010;2023-05-23T12:14:38;102046.38;;;24.32;34.83
70976;BME280;58635;51.198;6.010;2023-05-23T12:17:12;102051.22;;;24.45;34.08
70976;BME280;58635;51.198;6.010;2023-05-23T12:19:38;102047.78;;;24.44;33.72
70976;BME280;58635;51.198;6.010;2023-05-23T12:22:05;102046.66;;;24.30;33.97
70976;BME280;58635;51.198;6.010;2023-05-23T12:24:31;102049.19;;;24.20;33.83
70976;BME280;58635;51.198;6.010;2023-05-23T12:26:58;102041.00;;;24.27;33.96
70976;BME280;58635;51.198;6.010;2023-05-23T12:29:32;102034.56;;;24.44;33.67
70976;BME280;58635;51.198;6.010;2023-05-23T12:31:59;102035.16;;;24.57;33.04
70976;BME280;58635;51.198;6.010;2023-05-23T12:34:25;102033.84;;;24.59;33.30
70976;BME280;58635;51.198;6.010;2023-05-23T12:36:54;102030.13;;;24.55;33.19
70976;BME280;58635;51.198;6.010;2023-05-23T12:39:24;102033.84;;;24.59;32.92
70976;BME280;58635;51.198;6.010;2023-05-23T12:41:54;102025.13;;;24.59;32.99
70976;BME280;58635;51.198;6.010;2023-05-23T12:44:21;102025.38;;;24.62;33.07
70976;BME280;58635;51.198;6.010;2023-05-23T12:46:46;102022.53;;;24.74;32.42
70976;BME280;58635;51.198;6.010;2023-05-23T12:49:12;102034.00;;;24.95;32.05
70976;BME280;58635;51.198;6.010;2023-05-23T12:51:38;102025.59;;;25.08;31.69
70976;BME280;58635;51.198;6.010;2023-05-23T12:54:04;102018.53;;;25.29;31.65
70976;BME280;58635;51.198;6.010;2023-05-23T12:56:29;102028.91;;;25.66;31.33
70976;BME280;58635;51.198;6.010;2023-05-23T12:58:55;102031.06;;;26.00;30.64